METAR Data
IDs: Format: Raw Decoded Include TAF

Data at: 2041 UTC 19 May 2019

PPIZ 191956Z AUTO 34010KT 10SM CLR 02/00 A2995 RMK AO2 SLP146 T00170000 FZRANO
PPIZ 191856Z AUTO 32007KT 10SM CLR 02/00 A2994 RMK AO2 SLP144 T00170000 FZRANO
PPIZ 191756Z AUTO 31008KT 10SM FEW048 02/01 A2994 RMK AO2 SLP144 T00170006 10044 21006 51009 FZRANO
PPIZ 191656Z AUTO 31006KT 10SM CLR 02/01 A2994 RMK AO2 SLP143 T00170006 FZRANO
PPIZ 191556Z AUTO 30007KT 10SM CLR 03/01 A2993 RMK AO2 SLP138 T00330011
PPIZ 191456Z AUTO 30008KT 10SM CLR 02/01 A2992 RMK AO2 SLP135 T00220006 51010 FZRANO
PPIZ 191356Z AUTO 29008KT 10SM CLR 01/00 A2991 RMK AO2 SLP133 T00060000 FZRANO
PPIZ 191256Z AUTO 30006KT 10SM CLR 00/M01 A2990 RMK AO2 SLP131 T00001006 FZRANO
PPIZ 191156Z AUTO 30004KT 10SM CLR M01/M02 A2989 RMK AO2 SLP125 T10061017 10050 21006 51014 FZRANO
PPIZ 191056Z AUTO 03004KT 10SM CLR 02/01 A2988 RMK AO2 SLP122 T00170006 FZRANO
PPIZ 190956Z AUTO 01004KT 10SM CLR 02/01 A2986 RMK AO2 SLP117 T00220006 FZRANO
PPIZ 190856Z AUTO 01006KT 10SM CLR 02/00 A2984 RMK AO2 SLP110 T00170000 53012 FZRANO
PPIZ 190556Z AUTO 27005KT 10SM SCT085 04/02 A2981 RMK AO2 SLP099 60000 T00440017 10100 20033 51015
PPIZ 190456Z AUTO 31005KT 10SM BKN048 06/03 A2979 RMK AO2 RAE15 SLP092 P0000 T00560028
PPIZ 190256Z AUTO 01005KT 10SM CLR 06/03 A2976 RMK AO2 SLP083 60000 T00610028 51011
PPIZ 190056Z AUTO 29005KT 10SM BKN049 OVC055 07/03 A2975 RMK AO2 RAB13E31 SLP078 P0000 T00720033
PPIZ 182356Z AUTO 34005KT 10SM BKN055 BKN070 OVC080 09/04 A2973 RMK AO2 SLP072 T00940039 10111 20028 53007
PPIZ 182256Z AUTO 04007KT 10SM OVC070 10/03 A2972 RMK AO2 SLP069 T01000033
PPIZ 182156Z AUTO 02006KT 10SM FEW055 BKN075 11/04 A2971 RMK AO2 SLP066 T01060039
PPIZ 182056Z AUTO 36005KT 10SM FEW070 08/03 A2971 RMK AO2 SLP065 T00830033 50005
PPIZ 181956Z AUTO 00000KT 10SM FEW070 08/02 A2971 RMK AO2 SLP065 T00830022
PPIZ 181856Z AUTO 07005KT 10SM SCT075 06/01 A2970 RMK AO2 SLP062 T00560011
PPIZ 181756Z AUTO 08007KT 10SM OVC080 03/01 A2970 RMK AO2 SLP060 60000 T00280006 10028 21017 55001
PPIZ 181656Z AUTO 07008KT 10SM OVC085 01/00 A2969 RMK AO2 SLP059 T00060000 FZRANO
PPIZ 181623Z AUTO 06008KT 10SM SCT002 OVC085 00/00 A2969 RMK AO2 FZRANO
PPIZ 181556Z AUTO 06011KT 10SM OVC002 M01/M01 A2969 RMK AO2 UPB12E14SNE12 SLP059 P0000 T10061006 FZRANO
PPIZ 181527Z AUTO 05010KT 3SM BR OVC002 M01/M02 A2969 RMK AO2 UPB12E14SNE12 P0000 FZRANO
PPIZ 181514Z AUTO 05010KT 1 1/4SM BR OVC002 M01/M02 A2970 RMK AO2 UPB12E14SNE12 P0000 FZRANO
PPIZ 181511Z AUTO 06012KT 3/4SM -SN BR OVC002 M01/M01 A2970 RMK AO2 P0000 FZRANO
PPIZ 181506Z AUTO 07011KT 1/4SM -SN FZFG OVC002 M01/M01 A2970 RMK AO2 P0000 FZRANO
PPIZ 181456Z AUTO 07012KT 1/2SM -SN FZFG OVC002 M01/M02 A2970 RMK AO2 SLP061 P0000 60000 T10111017 51005 FZRANO
PPIZ 181356Z AUTO 06011KT 1/4SM -SN FZFG OVC002 M01/M02 A2970 RMK AO2 SNB1257 SLP061 P0000 T10111017 FZRANO
PPIZ 181256Z AUTO 06011KT 1/4SM FZFG OVC002 M01/M02 A2969 RMK AO2 SNB27E53 SLP058 P0000 T10111017 FZRANO
PPIZ 181244Z AUTO 06014KT 1/2SM -SN FZFG OVC002 M01/M02 A2969 RMK AO2 SNB27 P0000 FZRANO
PPIZ 181226Z AUTO 06016KT 3/4SM BR OVC002 M01/M02 A2969 RMK AO2 VIS 1/2V2 1/2 FZRANO
PPIZ 181208Z AUTO 06016KT 1 3/4SM BR OVC002 M01/M02 A2969 RMK AO2 FZRANO
PPIZ 181203Z AUTO 07012KT 4SM BR OVC002 M01/M02 A2969 RMK AO2 FZRANO
PPIZ 181156Z AUTO 06014KT 1 3/4SM BR OVC002 M01/M02 A2969 RMK AO2 VIS 3/4V5 SLP057 T10111017 10017 21011 53004 FZRANO
PPIZ 181152Z AUTO 06016KT 2 1/2SM BR OVC002 M01/M02 A2968 RMK AO2 VIS 1 1/4V5 FZRANO
PPIZ 181056Z AUTO 07017KT 10SM OVC004 M01/M01 A2968 RMK AO2 SLP056 T10061011 FZRANO
PPIZ 181029Z AUTO 07017KT 10SM OVC004 00/M01 A2968 RMK AO2 FZRANO
PPIZ 180956Z AUTO 06017G20KT 10SM OVC006 00/M01 A2967 RMK AO2 SLP053 T00001011 FZRANO
PPIZ 180943Z AUTO 07016G23KT 10SM BKN006 00/M01 A2967 RMK AO2 FZRANO
PPIZ 180935Z AUTO 06018KT 10SM SCT006 00/M01 A2967 RMK AO2 FZRANO
PPIZ 180856Z AUTO 07016KT 10SM CLR 00/M01 A2968 RMK AO2 SLP053 T00001011 53002 FZRANO